sensor_id;sensor_type;location;lat;lon;timestamp;pressure;altitude;pressure_sealevel;temperature
64394;BMP280;50712;49.506;10.400;2023-07-29T00:00:13;97607.25;;;21.81
64394;BMP280;50712;49.506;10.400;2023-07-29T00:00:45;97614.31;;;21.83
64394;BMP280;50712;49.506;10.400;2023-07-29T00:01:16;97610.78;;;21.82
64394;BMP280;50712;49.506;10.400;2023-07-29T00:01:46;97610.78;;;21.82
64394;BMP280;50712;49.506;10.400;2023-07-29T00:02:17;97612.81;;;21.81
64394;BMP280;50712;49.506;10.400;2023-07-29T00:02:47;97610.03;;;21.81
64394;BMP280;50712;49.506;10.400;2023-07-29T00:03:18;97612.81;;;21.81
64394;BMP280;50712;49.506;10.400;2023-07-29T00:03:48;97615.56;;;21.81
64394;BMP280;50712;49.506;10.400;2023-07-29T00:04:19;97614.81;;;21.81
64394;BMP280;50712;49.506;10.400;2023-07-29T00:04:50;97616.09;;;21.80
64394;BMP280;50712;49.506;10.400;2023-07-29T00:05:20;97617.59;;;21.81
64394;BMP280;50712;49.506;10.400;2023-07-29T00:05:51;97625.91;;;21.81
64394;BMP280;50712;49.506;10.400;2023-07-29T00:06:21;97619.63;;;21.80
64394;BMP280;50712;49.506;10.400;2023-07-29T00:06:52;97622.38;;;21.80
64394;BMP280;50712;49.506;10.400;2023-07-29T00:07:22;97619.63;;;21.80
64394;BMP280;50712;49.506;10.400;2023-07-29T00:07:53;97618.84;;;21.80
64394;BMP280;50712;49.506;10.400;2023-07-29T00:08:23;97625.16;;;21.80
64394;BMP280;50712;49.506;10.400;2023-07-29T00:08:54;97624.41;;;21.80
64394;BMP280;50712;49.506;10.400;2023-07-29T00:09:24;97617.38;;;21.79
64394;BMP280;50712;49.506;10.400;2023-07-29T00:09:55;97623.69;;;21.79
64394;BMP280;50712;49.506;10.400;2023-07-29T00:10:25;97623.69;;;21.79
64394;BMP280;50712;49.506;10.400;2023-07-29T00:10:57;97613.88;;;21.78
64394;BMP280;50712;49.506;10.400;2023-07-29T00:11:27;97615.91;;;21.78
64394;BMP280;50712;49.506;10.400;2023-07-29T00:11:58;97614.59;;;21.79
64394;BMP280;50712;49.506;10.400;2023-07-29T00:12:28;97608.34;;;21.78
64394;BMP280;50712;49.506;10.400;2023-07-29T00:12:59;97618.13;;;21.79
64394;BMP280;50712;49.506;10.400;2023-07-29T00:13:29;97611.09;;;21.78
64394;BMP280;50712;49.506;10.400;2023-07-29T00:14:00;97606.81;;;21.77
64394;BMP280;50712;49.506;10.400;2023-07-29T00:14:31;97606.06;;;21.77
64394;BMP280;50712;49.506;10.400;2023-07-29T00:15:02;97606.06;;;21.77
64394;BMP280;50712;49.506;10.400;2023-07-29T00:15:32;97607.38;;;21.76
64394;BMP280;50712;49.506;10.400;2023-07-29T00:16:03;97607.38;;;21.76
64394;BMP280;50712;49.506;10.400;2023-07-29T00:16:33;97605.13;;;21.74
64394;BMP280;50712;49.506;10.400;2023-07-29T00:17:04;97609.91;;;21.74
64394;BMP280;50712;49.506;10.400;2023-07-29T00:17:34;97607.91;;;21.74
64394;BMP280;50712;49.506;10.400;2023-07-29T00:18:05;97600.88;;;21.73
64394;BMP280;50712;49.506;10.400;2023-07-29T00:18:35;97603.66;;;21.73
64394;BMP280;50712;49.506;10.400;2023-07-29T00:19:06;97600.13;;;21.73
64394;BMP280;50712;49.506;10.400;2023-07-29T00:19:36;97596.59;;;21.72
64394;BMP280;50712;49.506;10.400;2023-07-29T00:20:07;97598.59;;;21.72
64394;BMP280;50712;49.506;10.400;2023-07-29T00:20:38;97596.59;;;21.72
64394;BMP280;50712;49.506;10.400;2023-07-29T00:21:08;97593.06;;;21.72
64394;BMP280;50712;49.506;10.400;2023-07-29T00:21:39;97595.84;;;21.72
64394;BMP280;50712;49.506;10.400;2023-07-29T00:22:11;97597.84;;;21.71
64394;BMP280;50712;49.506;10.400;2023-07-29T00:22:41;97593.06;;;21.72
64394;BMP280;50712;49.506;10.400;2023-07-29T00:23:12;97597.84;;;21.71
64394;BMP280;50712;49.506;10.400;2023-07-29T00:23:42;97599.88;;;21.71
64394;BMP280;50712;49.506;10.400;2023-07-29T00:24:13;97595.66;;;21.70
64394;BMP280;50712;49.506;10.400;2023-07-29T00:24:43;97593.59;;;21.70
64394;BMP280;50712;49.506;10.400;2023-07-29T00:25:14;97601.19;;;21.70
64394;BMP280;50712;49.506;10.400;2023-07-29T00:25:44;97606.00;;;21.69
64394;BMP280;50712;49.506;10.400;2023-07-29T00:26:15;97592.13;;;21.69
64394;BMP280;50712;49.506;10.400;2023-07-29T00:26:46;97596.16;;;21.68
64394;BMP280;50712;49.506;10.400;2023-07-29T00:27:16;97606.00;;;21.69
64394;BMP280;50712;49.506;10.400;2023-07-29T00:27:46;97599.69;;;21.69
64394;BMP280;50712;49.506;10.400;2023-07-29T00:28:17;97599.69;;;21.69
64394;BMP280;50712;49.506;10.400;2023-07-29T00:28:48;97596.91;;;21.69
64394;BMP280;50712;49.506;10.400;2023-07-29T00:29:19;97595.41;;;21.68
64394;BMP280;50712;49.506;10.400;2023-07-29T00:29:49;97596.16;;;21.68
64394;BMP280;50712;49.506;10.400;2023-07-29T00:30:20;97586.34;;;21.67
64394;BMP280;50712;49.506;10.400;2023-07-29T00:30:50;97595.41;;;21.68
64394;BMP280;50712;49.506;10.400;2023-07-29T00:31:20;97591.88;;;21.67
64394;BMP280;50712;49.506;10.400;2023-07-29T00:31:51;97597.44;;;21.67
64394;BMP280;50712;49.506;10.400;2023-07-29T00:32:21;97594.47;;;21.65
64394;BMP280;50712;49.506;10.400;2023-07-29T00:32:52;97595.22;;;21.66
64394;BMP280;50712;49.506;10.400;2023-07-29T00:33:22;97600.75;;;21.66
64394;BMP280;50712;49.506;10.400;2023-07-29T00:33:53;97595.22;;;21.66
64394;BMP280;50712;49.506;10.400;2023-07-29T00:34:24;97591.69;;;21.65
64394;BMP280;50712;49.506;10.400;2023-07-29T00:34:54;97592.44;;;21.66
64394;BMP280;50712;49.506;10.400;2023-07-29T00:35:25;97595.22;;;21.66
64394;BMP280;50712;49.506;10.400;2023-07-29T00:35:56;97595.22;;;21.66
64394;BMP280;50712;49.506;10.400;2023-07-29T00:36:27;97598.00;;;21.66
64394;BMP280;50712;49.506;10.400;2023-07-29T00:36:57;97590.94;;;21.65
64394;BMP280;50712;49.506;10.400;2023-07-29T00:37:28;97588.16;;;21.65
64394;BMP280;50712;49.506;10.400;2023-07-29T00:38:00;97590.19;;;21.64
64394;BMP280;50712;49.506;10.400;2023-07-29T00:38:30;97583.91;;;21.64
64394;BMP280;50712;49.506;10.400;2023-07-29T00:39:01;97587.41;;;21.64
64394;BMP280;50712;49.506;10.400;2023-07-29T00:39:32;97587.22;;;21.62
64394;BMP280;50712;49.506;10.400;2023-07-29T00:40:03;97591.47;;;21.63
64394;BMP280;50712;49.506;10.400;2023-07-29T00:40:40;97587.22;;;21.62
64394;BMP280;50712;49.506;10.400;2023-07-29T00:41:10;97583.69;;;21.62
64394;BMP280;50712;49.506;10.400;2023-07-29T00:41:45;97584.44;;;21.62
64394;BMP280;50712;49.506;10.400;2023-07-29T00:42:16;97585.19;;;21.63
64394;BMP280;50712;49.506;10.400;2023-07-29T00:42:46;97593.53;;;21.63
64394;BMP280;50712;49.506;10.400;2023-07-29T00:43:17;97589.25;;;21.62
64394;BMP280;50712;49.506;10.400;2023-07-29T00:43:47;97593.28;;;21.61
64394;BMP280;50712;49.506;10.400;2023-07-29T00:44:18;97588.47;;;21.61
64394;BMP280;50712;49.506;10.400;2023-07-29T00:44:48;97591.25;;;21.61
64394;BMP280;50712;49.506;10.400;2023-07-29T00:45:19;97591.25;;;21.61
64394;BMP280;50712;49.506;10.400;2023-07-29T00:45:49;97587.72;;;21.61
64394;BMP280;50712;49.506;10.400;2023-07-29T00:46:20;97589.03;;;21.60
64394;BMP280;50712;49.506;10.400;2023-07-29T00:46:52;97592.53;;;21.60
64394;BMP280;50712;49.506;10.400;2023-07-29T00:47:24;97589.78;;;21.60
64394;BMP280;50712;49.506;10.400;2023-07-29T00:47:55;97584.78;;;21.59
64394;BMP280;50712;49.506;10.400;2023-07-29T00:48:26;97586.25;;;21.60
64394;BMP280;50712;49.506;10.400;2023-07-29T00:48:57;97588.25;;;21.59
64394;BMP280;50712;49.506;10.400;2023-07-29T00:49:28;97584.78;;;21.59
64394;BMP280;50712;49.506;10.400;2023-07-29T00:49:59;97589.56;;;21.58
64394;BMP280;50712;49.506;10.400;2023-07-29T00:50:30;97597.88;;;21.58
64394;BMP280;50712;49.506;10.400;2023-07-29T00:51:03;97597.88;;;21.58
64394;BMP280;50712;49.506;10.400;2023-07-29T00:51:34;97594.34;;;21.58
64394;BMP280;50712;49.506;10.400;2023-07-29T00:52:05;97594.34;;;21.58
64394;BMP280;50712;49.506;10.400;2023-07-29T00:52:36;97589.56;;;21.58
64394;BMP280;50712;49.506;10.400;2023-07-29T00:53:06;97588.81;;;21.58
64394;BMP280;50712;49.506;10.400;2023-07-29T00:53:37;97592.88;;;21.57
64394;BMP280;50712;49.506;10.400;2023-07-29T00:54:08;97590.84;;;21.57
64394;BMP280;50712;49.506;10.400;2023-07-29T00:54:39;97589.34;;;21.56
64394;BMP280;50712;49.506;10.400;2023-07-29T00:55:10;97594.88;;;21.56
64394;BMP280;50712;49.506;10.400;2023-07-29T00:55:41;97589.34;;;21.56
64394;BMP280;50712;49.506;10.400;2023-07-29T00:56:12;97589.34;;;21.56
64394;BMP280;50712;49.506;10.400;2023-07-29T00:56:43;97589.34;;;21.56
64394;BMP280;50712;49.506;10.400;2023-07-29T00:57:13;97583.03;;;21.56
64394;BMP280;50712;49.506;10.400;2023-07-29T00:57:46;97580.84;;;21.54
64394;BMP280;50712;49.506;10.400;2023-07-29T00:58:18;97576.75;;;21.55
64394;BMP280;50712;49.506;10.400;2023-07-29T00:58:49;97589.16;;;21.54
64394;BMP280;50712;49.506;10.400;2023-07-29T00:59:21;97588.41;;;21.54
64394;BMP280;50712;49.506;10.400;2023-07-29T00:59:52;97583.38;;;21.52
64394;BMP280;50712;49.506;10.400;2023-07-29T01:00:24;97588.16;;;21.52
64394;BMP280;50712;49.506;10.400;2023-07-29T01:00:55;97587.41;;;21.51
64394;BMP280;50712;49.506;10.400;2023-07-29T01:01:27;97581.84;;;21.51
64394;BMP280;50712;49.506;10.400;2023-07-29T01:01:59;97588.72;;;21.50
64394;BMP280;50712;49.506;10.400;2023-07-29T01:02:29;97584.44;;;21.49
64394;BMP280;50712;49.506;10.400;2023-07-29T01:03:02;97590.75;;;21.50
64394;BMP280;50712;49.506;10.400;2023-07-29T01:03:33;97587.22;;;21.49
64394;BMP280;50712;49.506;10.400;2023-07-29T01:04:05;97597.53;;;21.49
64394;BMP280;50712;49.506;10.400;2023-07-29T01:04:35;97593.28;;;21.48
64394;BMP280;50712;49.506;10.400;2023-07-29T01:05:06;97590.53;;;21.48
64394;BMP280;50712;49.506;10.400;2023-07-29T01:05:40;97589.78;;;21.47
64394;BMP280;50712;49.506;10.400;2023-07-29T01:08:28;97591.06;;;21.46
64394;BMP280;50712;49.506;10.400;2023-07-29T01:09:06;97595.09;;;21.45
64394;BMP280;50712;49.506;10.400;2023-07-29T01:09:47;97588.06;;;21.44
64394;BMP280;50712;49.506;10.400;2023-07-29T01:10:46;97595.63;;;21.44
64394;BMP280;50712;49.506;10.400;2023-07-29T01:11:35;97585.06;;;21.42
64394;BMP280;50712;49.506;10.400;2023-07-29T01:13:04;97591.91;;;21.41
64394;BMP280;50712;49.506;10.400;2023-07-29T01:13:42;97588.38;;;21.41
64394;BMP280;50712;49.506;10.400;2023-07-29T01:14:59;97590.41;;;21.40
64394;BMP280;50712;49.506;10.400;2023-07-29T01:15:33;97586.16;;;21.39
64394;BMP280;50712;49.506;10.400;2023-07-29T01:16:14;97588.16;;;21.39
64394;BMP280;50712;49.506;10.400;2023-07-29T01:16:55;97595.75;;;21.38
64394;BMP280;50712;49.506;10.400;2023-07-29T01:17:32;97590.22;;;21.38
64394;BMP280;50712;49.506;10.400;2023-07-29T01:18:08;97594.25;;;21.37
64394;BMP280;50712;49.506;10.400;2023-07-29T01:18:47;97592.72;;;21.36
64394;BMP280;50712;49.506;10.400;2023-07-29T01:20:16;97593.31;;;21.35
64394;BMP280;50712;49.506;10.400;2023-07-29T01:20:51;97590.53;;;21.35
64394;BMP280;50712;49.506;10.400;2023-07-29T01:21:24;97591.03;;;21.33
64394;BMP280;50712;49.506;10.400;2023-07-29T01:21:57;97589.56;;;21.32
64394;BMP280;50712;49.506;10.400;2023-07-29T01:22:28;97592.31;;;21.32
64394;BMP280;50712;49.506;10.400;2023-07-29T01:23:01;97597.66;;;21.30
64394;BMP280;50712;49.506;10.400;2023-07-29T01:23:32;97597.66;;;21.30
64394;BMP280;50712;49.506;10.400;2023-07-29T01:24:04;97591.34;;;21.30
64394;BMP280;50712;49.506;10.400;2023-07-29T01:24:35;97588.56;;;21.30
64394;BMP280;50712;49.506;10.400;2023-07-29T01:25:05;97590.59;;;21.29
64394;BMP280;50712;49.506;10.400;2023-07-29T01:25:36;97590.41;;;21.27
64394;BMP280;50712;49.506;10.400;2023-07-29T01:26:07;97594.44;;;21.26
64394;BMP280;50712;49.506;10.400;2023-07-29T01:26:37;97588.91;;;21.26
64394;BMP280;50712;49.506;10.400;2023-07-29T01:27:08;97588.16;;;21.26
64394;BMP280;50712;49.506;10.400;2023-07-29T01:27:39;97590.94;;;21.26
64394;BMP280;50712;49.506;10.400;2023-07-29T01:28:10;97589.44;;;21.25
64394;BMP280;50712;49.506;10.400;2023-07-29T01:28:41;97590.69;;;21.24
64394;BMP280;50712;49.506;10.400;2023-07-29T01:29:12;97585.16;;;21.24
64394;BMP280;50712;49.506;10.400;2023-07-29T01:29:42;97587.91;;;21.24
64394;BMP280;50712;49.506;10.400;2023-07-29T01:30:13;97583.69;;;21.23
64394;BMP280;50712;49.506;10.400;2023-07-29T01:30:43;97589.25;;;21.23
64394;BMP280;50712;49.506;10.400;2023-07-29T01:31:25;97584.97;;;21.22
64394;BMP280;50712;49.506;10.400;2023-07-29T01:32:04;97592.00;;;21.23
64394;BMP280;50712;49.506;10.400;2023-07-29T01:32:46;97584.22;;;21.21
64394;BMP280;50712;49.506;10.400;2023-07-29T01:33:56;97591.75;;;21.21
64394;BMP280;50712;49.506;10.400;2023-07-29T01:34:29;97593.03;;;21.20
64394;BMP280;50712;49.506;10.400;2023-07-29T01:35:23;97588.81;;;21.19
64394;BMP280;50712;49.506;10.400;2023-07-29T01:36:13;97592.84;;;21.18
64394;BMP280;50712;49.506;10.400;2023-07-29T01:36:48;97588.56;;;21.17
64394;BMP280;50712;49.506;10.400;2023-07-29T01:37:22;97590.59;;;21.16
64394;BMP280;50712;49.506;10.400;2023-07-29T01:37:59;97596.13;;;21.16
64394;BMP280;50712;49.506;10.400;2023-07-29T01:38:35;97591.88;;;21.15
64394;BMP280;50712;49.506;10.400;2023-07-29T01:39:07;97590.38;;;21.14
64394;BMP280;50712;49.506;10.400;2023-07-29T01:39:38;97590.38;;;21.14
64394;BMP280;50712;49.506;10.400;2023-07-29T01:40:10;97586.13;;;21.13
64394;BMP280;50712;49.506;10.400;2023-07-29T01:40:41;97582.59;;;21.13
64394;BMP280;50712;49.506;10.400;2023-07-29T01:41:13;97580.38;;;21.11
64394;BMP280;50712;49.506;10.400;2023-07-29T01:41:44;97579.59;;;21.11
64394;BMP280;50712;49.506;10.400;2023-07-29T01:42:15;97580.13;;;21.09
64394;BMP280;50712;49.506;10.400;2023-07-29T01:42:46;97577.88;;;21.08
64394;BMP280;50712;49.506;10.400;2023-07-29T01:43:17;97577.88;;;21.08
64394;BMP280;50712;49.506;10.400;2023-07-29T01:43:53;97575.66;;;21.06
64394;BMP280;50712;49.506;10.400;2023-07-29T01:44:27;97572.16;;;21.06
64394;BMP280;50712;49.506;10.400;2023-07-29T01:44:57;97574.16;;;21.05
64394;BMP280;50712;49.506;10.400;2023-07-29T01:45:29;97574.69;;;21.04
64394;BMP280;50712;49.506;10.400;2023-07-29T01:46:02;97576.75;;;21.03
64394;BMP280;50712;49.506;10.400;2023-07-29T01:46:35;97572.47;;;21.02
64394;BMP280;50712;49.506;10.400;2023-07-29T01:47:08;97568.94;;;21.02
64394;BMP280;50712;49.506;10.400;2023-07-29T01:47:38;97566.69;;;21.00
64394;BMP280;50712;49.506;10.400;2023-07-29T01:48:11;97569.47;;;21.00
64394;BMP280;50712;49.506;10.400;2023-07-29T01:48:42;97571.47;;;21.00
64394;BMP280;50712;49.506;10.400;2023-07-29T01:49:12;97570.00;;;20.99
64394;BMP280;50712;49.506;10.400;2023-07-29T01:49:43;97570.53;;;20.97
64394;BMP280;50712;49.506;10.400;2023-07-29T01:50:14;97564.25;;;20.97
64394;BMP280;50712;49.506;10.400;2023-07-29T01:50:44;97568.28;;;20.96
64394;BMP280;50712;49.506;10.400;2023-07-29T01:51:15;97563.28;;;20.94
64394;BMP280;50712;49.506;10.400;2023-07-29T01:51:45;97565.31;;;20.94
64394;BMP280;50712;49.506;10.400;2023-07-29T01:52:16;97564.34;;;20.91
64394;BMP280;50712;49.506;10.400;2023-07-29T01:52:46;97556.56;;;20.90
64394;BMP280;50712;49.506;10.400;2023-07-29T01:53:17;97563.91;;;20.87
64394;BMP280;50712;49.506;10.400;2023-07-29T01:53:47;97557.63;;;20.87
64394;BMP280;50712;49.506;10.400;2023-07-29T01:54:18;97560.16;;;20.85
64394;BMP280;50712;49.506;10.400;2023-07-29T01:54:48;97554.63;;;20.85
64394;BMP280;50712;49.506;10.400;2023-07-29T01:55:19;97552.38;;;20.83
64394;BMP280;50712;49.506;10.400;2023-07-29T01:55:49;97556.44;;;20.82
64394;BMP280;50712;49.506;10.400;2023-07-29T01:56:20;97556.97;;;20.81
64394;BMP280;50712;49.506;10.400;2023-07-29T01:56:58;97561.22;;;20.82
64394;BMP280;50712;49.506;10.400;2023-07-29T01:57:28;97555.44;;;20.80
64394;BMP280;50712;49.506;10.400;2023-07-29T01:57:59;97556.97;;;20.81
64394;BMP280;50712;49.506;10.400;2023-07-29T01:58:30;97558.97;;;20.80
64394;BMP280;50712;49.506;10.400;2023-07-29T01:59:01;97556.72;;;20.79
64394;BMP280;50712;49.506;10.400;2023-07-29T01:59:32;97563.00;;;20.79
64394;BMP280;50712;49.506;10.400;2023-07-29T02:00:03;97556.72;;;20.79
64394;BMP280;50712;49.506;10.400;2023-07-29T02:00:44;97558.78;;;20.78
64394;BMP280;50712;49.506;10.400;2023-07-29T02:01:15;97556.00;;;20.78
64394;BMP280;50712;49.506;10.400;2023-07-29T02:01:45;97549.72;;;20.78
64394;BMP280;50712;49.506;10.400;2023-07-29T02:02:16;97537.13;;;20.77
64394;BMP280;50712;49.506;10.400;2023-07-29T02:02:47;97543.41;;;20.77
64394;BMP280;50712;49.506;10.400;2023-07-29T02:03:17;97542.66;;;20.77
64394;BMP280;50712;49.506;10.400;2023-07-29T02:03:48;97545.97;;;20.75
64394;BMP280;50712;49.506;10.400;2023-07-29T02:04:24;97541.91;;;20.76
64394;BMP280;50712;49.506;10.400;2023-07-29T02:04:56;97539.16;;;20.76
64394;BMP280;50712;49.506;10.400;2023-07-29T02:05:26;97539.16;;;20.76
64394;BMP280;50712;49.506;10.400;2023-07-29T02:05:57;97537.66;;;20.75
64394;BMP280;50712;49.506;10.400;2023-07-29T02:06:27;97532.84;;;20.75
64394;BMP280;50712;49.506;10.400;2023-07-29T02:06:58;97536.38;;;20.76
64394;BMP280;50712;49.506;10.400;2023-07-29T02:07:29;97532.84;;;20.75
64394;BMP280;50712;49.506;10.400;2023-07-29T02:07:59;97530.66;;;20.74
64394;BMP280;50712;49.506;10.400;2023-07-29T02:08:30;97534.91;;;20.75
64394;BMP280;50712;49.506;10.400;2023-07-29T02:09:00;97537.66;;;20.75
64394;BMP280;50712;49.506;10.400;2023-07-29T02:09:31;97540.44;;;20.75
64394;BMP280;50712;49.506;10.400;2023-07-29T02:10:02;97540.44;;;20.75
64394;BMP280;50712;49.506;10.400;2023-07-29T02:10:33;97544.50;;;20.74
64394;BMP280;50712;49.506;10.400;2023-07-29T02:11:03;97544.50;;;20.74
64394;BMP280;50712;49.506;10.400;2023-07-29T02:11:34;97537.44;;;20.73
64394;BMP280;50712;49.506;10.400;2023-07-29T02:12:06;97549.28;;;20.73
64394;BMP280;50712;49.506;10.400;2023-07-29T02:12:41;97548.53;;;20.73
64394;BMP280;50712;49.506;10.400;2023-07-29T02:13:11;97554.06;;;20.73
64394;BMP280;50712;49.506;10.400;2023-07-29T02:13:42;97554.81;;;20.73
64394;BMP280;50712;49.506;10.400;2023-07-29T02:14:13;97558.84;;;20.72
64394;BMP280;50712;49.506;10.400;2023-07-29T02:14:44;97560.34;;;20.73
64394;BMP280;50712;49.506;10.400;2023-07-29T02:15:14;97555.31;;;20.72
64394;BMP280;50712;49.506;10.400;2023-07-29T02:15:45;97558.84;;;20.72
64394;BMP280;50712;49.506;10.400;2023-07-29T02:16:16;97556.06;;;20.72
64394;BMP280;50712;49.506;10.400;2023-07-29T02:16:46;97553.31;;;20.72
64394;BMP280;50712;49.506;10.400;2023-07-29T02:17:17;97554.06;;;20.73
64394;BMP280;50712;49.506;10.400;2023-07-29T02:17:49;97560.84;;;20.72
64394;BMP280;50712;49.506;10.400;2023-07-29T02:18:20;97549.06;;;20.71
64394;BMP280;50712;49.506;10.400;2023-07-29T02:18:51;97547.00;;;20.72
64394;BMP280;50712;49.506;10.400;2023-07-29T02:19:22;97552.53;;;20.72
64394;BMP280;50712;49.506;10.400;2023-07-29T02:19:52;97550.53;;;20.72
64394;BMP280;50712;49.506;10.400;2023-07-29T02:20:23;97543.50;;;20.71
64394;BMP280;50712;49.506;10.400;2023-07-29T02:20:55;97549.78;;;20.72
64394;BMP280;50712;49.506;10.400;2023-07-29T02:21:25;97541.47;;;20.72
64394;BMP280;50712;49.506;10.400;2023-07-29T02:21:56;97547.75;;;20.72
64394;BMP280;50712;49.506;10.400;2023-07-29T02:22:26;97535.94;;;20.72
64394;BMP280;50712;49.506;10.400;2023-07-29T02:22:57;97536.69;;;20.72
64394;BMP280;50712;49.506;10.400;2023-07-29T02:23:28;97533.91;;;20.72
64394;BMP280;50712;49.506;10.400;2023-07-29T02:23:58;97533.91;;;20.72
64394;BMP280;50712;49.506;10.400;2023-07-29T02:24:29;97538.69;;;20.72
64394;BMP280;50712;49.506;10.400;2023-07-29T02:25:00;97535.94;;;20.72
64394;BMP280;50712;49.506;10.400;2023-07-29T02:25:31;97533.16;;;20.72
64394;BMP280;50712;49.506;10.400;2023-07-29T02:26:01;97532.44;;;20.71
64394;BMP280;50712;49.506;10.400;2023-07-29T02:26:32;97533.16;;;20.72
64394;BMP280;50712;49.506;10.400;2023-07-29T02:27:02;97529.66;;;20.71
64394;BMP280;50712;49.506;10.400;2023-07-29T02:27:33;97535.22;;;20.71
64394;BMP280;50712;49.506;10.400;2023-07-29T02:28:04;97528.19;;;20.70
64394;BMP280;50712;49.506;10.400;2023-07-29T02:28:34;97530.97;;;20.70
64394;BMP280;50712;49.506;10.400;2023-07-29T02:29:05;97530.19;;;20.70
64394;BMP280;50712;49.506;10.400;2023-07-29T02:29:35;97524.66;;;20.70
64394;BMP280;50712;49.506;10.400;2023-07-29T02:30:06;97526.47;;;20.67
64394;BMP280;50712;49.506;10.400;2023-07-29T02:30:40;97534.75;;;20.67
64394;BMP280;50712;49.506;10.400;2023-07-29T02:31:20;97520.47;;;20.63
64394;BMP280;50712;49.506;10.400;2023-07-29T02:31:52;97529.34;;;20.62
64394;BMP280;50712;49.506;10.400;2023-07-29T02:32:22;97526.31;;;20.60
64394;BMP280;50712;49.506;10.400;2023-07-29T02:32:53;97526.84;;;20.58
64394;BMP280;50712;49.506;10.400;2023-07-29T02:33:24;97524.09;;;20.58
64394;BMP280;50712;49.506;10.400;2023-07-29T02:33:54;97529.41;;;20.56
64394;BMP280;50712;49.506;10.400;2023-07-29T02:34:26;97532.16;;;20.56
64394;BMP280;50712;49.506;10.400;2023-07-29T02:34:57;97536.22;;;20.55
64394;BMP280;50712;49.506;10.400;2023-07-29T02:35:27;97535.47;;;20.55
64394;BMP280;50712;49.506;10.400;2023-07-29T02:35:58;97531.22;;;20.54
64394;BMP280;50712;49.506;10.400;2023-07-29T02:36:29;97533.22;;;20.53
64394;BMP280;50712;49.506;10.400;2023-07-29T02:37:00;97534.53;;;20.52
64394;BMP280;50712;49.506;10.400;2023-07-29T02:37:30;97541.31;;;20.51
64394;BMP280;50712;49.506;10.400;2023-07-29T02:38:01;97535.59;;;20.49
64394;BMP280;50712;49.506;10.400;2023-07-29T02:38:31;97536.09;;;20.48
64394;BMP280;50712;49.506;10.400;2023-07-29T02:39:02;97538.09;;;20.47
64394;BMP280;50712;49.506;10.400;2023-07-29T02:39:32;97541.41;;;20.46
64394;BMP280;50712;49.506;10.400;2023-07-29T02:40:03;97542.16;;;20.46
64394;BMP280;50712;49.506;10.400;2023-07-29T02:40:34;97544.19;;;20.46
64394;BMP280;50712;49.506;10.400;2023-07-29T02:41:05;97538.66;;;20.46
64394;BMP280;50712;49.506;10.400;2023-07-29T02:41:36;97540.66;;;20.45
64394;BMP280;50712;49.506;10.400;2023-07-29T02:42:06;97544.91;;;20.46
64394;BMP280;50712;49.506;10.400;2023-07-29T02:42:37;97541.41;;;20.46
64394;BMP280;50712;49.506;10.400;2023-07-29T02:43:08;97541.41;;;20.46
64394;BMP280;50712;49.506;10.400;2023-07-29T02:43:39;97534.38;;;20.45
64394;BMP280;50712;49.506;10.400;2023-07-29T02:44:11;97539.38;;;20.46
64394;BMP280;50712;49.506;10.400;2023-07-29T02:44:41;97544.91;;;20.46
64394;BMP280;50712;49.506;10.400;2023-07-29T02:45:12;97544.19;;;20.46
64394;BMP280;50712;49.506;10.400;2023-07-29T02:45:42;97542.16;;;20.46
64394;BMP280;50712;49.506;10.400;2023-07-29T02:46:13;97551.19;;;20.47
64394;BMP280;50712;49.506;10.400;2023-07-29T02:46:43;97558.75;;;20.46
64394;BMP280;50712;49.506;10.400;2023-07-29T02:47:14;97553.22;;;20.46
64394;BMP280;50712;49.506;10.400;2023-07-29T02:47:44;97553.94;;;20.47
64394;BMP280;50712;49.506;10.400;2023-07-29T02:48:15;97551.19;;;20.47
64394;BMP280;50712;49.506;10.400;2023-07-29T02:48:45;97548.41;;;20.47
64394;BMP280;50712;49.506;10.400;2023-07-29T02:49:16;97552.69;;;20.48
64394;BMP280;50712;49.506;10.400;2023-07-29T02:49:46;97549.16;;;20.47
64394;BMP280;50712;49.506;10.400;2023-07-29T02:50:17;97555.47;;;20.48
64394;BMP280;50712;49.506;10.400;2023-07-29T02:50:48;97552.69;;;20.48
64394;BMP280;50712;49.506;10.400;2023-07-29T02:51:18;97545.13;;;20.48
64394;BMP280;50712;49.506;10.400;2023-07-29T02:51:49;97546.41;;;20.47
64394;BMP280;50712;49.506;10.400;2023-07-29T02:52:19;97541.63;;;20.48
64394;BMP280;50712;49.506;10.400;2023-07-29T02:52:50;97547.16;;;20.48
64394;BMP280;50712;49.506;10.400;2023-07-29T02:53:22;97547.16;;;20.48
64394;BMP280;50712;49.506;10.400;2023-07-29T02:53:53;97541.63;;;20.48
64394;BMP280;50712;49.506;10.400;2023-07-29T02:54:23;97540.88;;;20.47
64394;BMP280;50712;49.506;10.400;2023-07-29T02:54:54;97544.38;;;20.48
64394;BMP280;50712;49.506;10.400;2023-07-29T02:55:24;97549.16;;;20.47
64394;BMP280;50712;49.506;10.400;2023-07-29T02:55:55;97540.88;;;20.47
64394;BMP280;50712;49.506;10.400;2023-07-29T02:56:25;97548.41;;;20.47
64394;BMP280;50712;49.506;10.400;2023-07-29T02:56:56;97542.16;;;20.46
64394;BMP280;50712;49.506;10.400;2023-07-29T02:57:27;97543.63;;;20.47
64394;BMP280;50712;49.506;10.400;2023-07-29T02:57:57;97542.16;;;20.46
64394;BMP280;50712;49.506;10.400;2023-07-29T02:58:29;97540.09;;;20.47
64394;BMP280;50712;49.506;10.400;2023-07-29T02:58:59;97537.34;;;20.47
64394;BMP280;50712;49.506;10.400;2023-07-29T02:59:32;97529.03;;;20.47
64394;BMP280;50712;49.506;10.400;2023-07-29T03:00:03;97534.56;;;20.47
64394;BMP280;50712;49.506;10.400;2023-07-29T03:00:34;97535.88;;;20.46
64394;BMP280;50712;49.506;10.400;2023-07-29T03:01:06;97534.56;;;20.47
64394;BMP280;50712;49.506;10.400;2023-07-29T03:01:36;97532.38;;;20.45
64394;BMP280;50712;49.506;10.400;2023-07-29T03:02:07;97537.34;;;20.47
64394;BMP280;50712;49.506;10.400;2023-07-29T03:02:38;97529.59;;;20.45
64394;BMP280;50712;49.506;10.400;2023-07-29T03:03:08;97533.84;;;20.46
64394;BMP280;50712;49.506;10.400;2023-07-29T03:03:39;97539.38;;;20.46
64394;BMP280;50712;49.506;10.400;2023-07-29T03:04:10;97538.66;;;20.46
64394;BMP280;50712;49.506;10.400;2023-07-29T03:04:43;97535.88;;;20.46
64394;BMP280;50712;49.506;10.400;2023-07-29T03:05:13;97535.88;;;20.46